createdAt,value
2019-05-03T00:02:42.778Z,99.90
2019-05-03T00:05:27.333Z,99.90
2019-05-03T00:08:18.980Z,99.90
2019-05-03T00:10:47.204Z,99.90
2019-05-03T00:13:23.191Z,99.90
2019-05-03T00:19:06.677Z,99.90
2019-05-03T00:28:44.873Z,99.90
2019-05-03T00:32:09.815Z,99.90
2019-05-03T00:35:05.486Z,99.90
2019-05-03T00:47:22.019Z,99.90
2019-05-03T00:49:57.143Z,99.90
2019-05-03T00:52:44.125Z,99.90
2019-05-03T00:55:22.037Z,99.90
2019-05-03T00:58:03.275Z,99.90
2019-05-03T01:00:48.693Z,99.90
2019-05-03T01:03:27.035Z,99.00
2019-05-03T01:09:13.523Z,99.50
2019-05-03T01:17:54.806Z,94.90
2019-05-03T01:20:55.460Z,94.90
2019-05-03T01:23:25.309Z,95.70
2019-05-03T01:26:06.454Z,95.00
2019-05-03T01:28:43.116Z,96.10
2019-05-03T01:31:31.947Z,95.70
2019-05-03T01:34:06.170Z,95.00
2019-05-03T01:39:53.637Z,96.10
2019-05-03T01:42:24.775Z,95.70
2019-05-03T01:45:15.166Z,95.50
2019-05-03T01:51:19.108Z,94.80
2019-05-03T01:54:09.680Z,94.80
2019-05-03T01:56:56.089Z,95.20
2019-05-03T01:59:32.293Z,95.70
2019-05-03T02:02:24.102Z,95.80
2019-05-03T02:09:44.936Z,96.40
2019-05-03T02:11:22.115Z,96.10
2019-05-03T02:16:56.389Z,96.00
2019-05-03T02:22:28.086Z,96.00
2019-05-03T02:28:03.875Z,97.00
2019-05-03T02:31:23.642Z,97.30
2019-05-03T02:34:20.107Z,96.70
2019-05-03T02:37:26.463Z,96.80
2019-05-03T02:39:59.920Z,98.90
2019-05-03T02:42:42.058Z,97.40
2019-05-03T02:45:40.817Z,97.20
2019-05-03T02:48:40.054Z,97.20
2019-05-03T02:51:46.554Z,97.60
2019-05-03T02:54:26.501Z,97.60
2019-05-03T03:00:55.861Z,98.00
2019-05-03T03:03:45.575Z,96.60
2019-05-03T03:12:06.284Z,97.70
2019-05-03T03:14:51.074Z,99.90
2019-05-03T03:17:39.978Z,99.20
2019-05-03T03:20:25.277Z,98.00
2019-05-03T03:23:07.534Z,97.20
2019-05-03T03:25:59.050Z,96.00
2019-05-03T03:28:37.030Z,96.20
2019-05-03T03:41:06.051Z,92.80
2019-05-03T03:44:09.075Z,93.00
2019-05-03T03:46:40.519Z,92.60
2019-05-03T03:50:15.035Z,92.80
2019-05-03T03:52:17.522Z,92.40
2019-05-03T03:54:59.729Z,93.00
2019-05-03T04:00:51.699Z,91.90
2019-05-03T04:03:31.602Z,90.50
2019-05-03T04:06:26.950Z,91.60
2019-05-03T04:09:17.018Z,91.30
2019-05-03T04:11:59.982Z,91.90
2019-05-03T04:14:57.414Z,91.90
2019-05-03T04:18:01.924Z,91.80
2019-05-03T04:20:39.657Z,92.10
2019-05-03T04:23:42.323Z,90.70
2019-05-03T04:26:32.203Z,92.30
2019-05-03T04:38:11.160Z,91.20
2019-05-03T04:40:52.271Z,89.70
2019-05-03T04:44:02.442Z,87.90
2019-05-03T04:47:06.743Z,85.60
2019-05-03T04:49:48.747Z,88.60
2019-05-03T04:52:26.131Z,90.00
2019-05-03T04:55:06.568Z,85.10
2019-05-03T04:58:39.054Z,84.00
2019-05-03T05:00:46.289Z,85.00
2019-05-03T05:03:26.570Z,85.20
2019-05-03T05:09:46.240Z,82.10
2019-05-03T05:12:25.203Z,83.80
2019-05-03T05:19:07.539Z,86.00
2019-05-03T05:28:15.600Z,81.80
2019-05-03T05:29:02.287Z,85.00
2019-05-03T05:31:54.845Z,83.60
2019-05-03T05:34:34.871Z,82.40
2019-05-03T05:46:42.571Z,82.30
2019-05-03T05:52:26.702Z,79.70
2019-05-03T05:55:25.150Z,82.70
2019-05-03T05:58:08.123Z,80.70
2019-05-03T05:59:05.472Z,81.00
2019-05-03T06:01:02.528Z,81.80
2019-05-03T06:07:17.926Z,83.60
2019-05-03T06:09:58.663Z,84.00
2019-05-03T06:13:07.011Z,85.50
2019-05-03T06:16:05.153Z,85.90
2019-05-03T06:18:58.422Z,86.20
2019-05-03T06:22:05.058Z,86.30
2019-05-03T06:25:18.344Z,86.70
2019-05-03T06:33:40.014Z,89.10
2019-05-03T06:36:18.148Z,87.10
2019-05-03T06:50:52.590Z,88.40
2019-05-03T06:53:55.163Z,86.20
2019-05-03T06:56:35.005Z,83.50
2019-05-03T07:02:46.961Z,79.80
2019-05-03T07:09:05.448Z,82.20
2019-05-03T07:14:45.069Z,84.30
2019-05-03T07:17:46.040Z,85.30
2019-05-03T07:23:18.750Z,82.90
2019-05-03T07:27:20.492Z,87.20
2019-05-03T07:32:59.056Z,87.70
2019-05-03T07:38:57.988Z,88.20
2019-05-03T07:45:55.189Z,88.10
2019-05-03T07:47:40.239Z,87.50
2019-05-03T07:50:18.994Z,89.50
2019-05-03T07:53:01.691Z,88.90
2019-05-03T07:59:02.846Z,91.00
2019-05-03T08:01:45.578Z,90.40
2019-05-03T08:16:37.407Z,92.20
2019-05-03T08:19:31.910Z,88.40
2019-05-03T08:22:14.888Z,89.70
2019-05-03T08:25:24.640Z,90.10
2019-05-03T08:28:00.872Z,87.90
2019-05-03T08:30:55.500Z,90.90
2019-05-03T08:33:48.089Z,90.80
2019-05-03T08:36:31.350Z,90.40
2019-05-03T08:46:56.271Z,90.00
2019-05-03T08:48:28.130Z,90.40
2019-05-03T08:51:07.331Z,91.30
2019-05-03T08:53:48.307Z,91.40
2019-05-03T08:56:26.972Z,91.10
2019-05-03T08:59:28.643Z,90.90
2019-05-03T09:01:52.254Z,92.00
2019-05-03T09:04:35.998Z,91.30
2019-05-03T09:07:09.810Z,92.20
2019-05-03T09:10:24.806Z,91.70
2019-05-03T09:13:19.480Z,92.70
2019-05-03T09:16:15.743Z,94.70
2019-05-03T09:18:51.189Z,93.90
2019-05-03T09:28:34.824Z,94.10
2019-05-03T09:30:25.105Z,94.70
2019-05-03T09:33:11.686Z,95.50
2019-05-03T09:36:01.899Z,95.30
2019-05-03T09:41:49.888Z,97.10
2019-05-03T09:41:52.124Z,96.80
2019-05-03T09:47:44.627Z,95.30
2019-05-03T09:57:15.878Z,97.40
2019-05-03T10:03:28.173Z,98.80
2019-05-03T10:12:32.882Z,99.90
2019-05-03T10:20:45.639Z,99.90
2019-05-03T10:21:37.445Z,99.90
2019-05-03T10:24:46.744Z,99.90
2019-05-03T10:34:05.773Z,99.90
2019-05-03T10:39:47.404Z,99.90
2019-05-03T10:42:28.210Z,99.90
2019-05-03T10:48:35.551Z,99.90
2019-05-03T10:55:16.840Z,99.90
2019-05-03T10:57:12.914Z,99.90
2019-05-03T11:03:34.968Z,99.90
2019-05-03T11:12:45.577Z,99.90
2019-05-03T11:15:34.948Z,99.90
2019-05-03T11:24:49.871Z,99.90
2019-05-03T11:27:50.625Z,99.90
2019-05-03T11:30:35.721Z,99.90
2019-05-03T11:34:05.144Z,99.90
2019-05-03T11:40:05.082Z,99.90
2019-05-03T11:42:49.406Z,99.90
2019-05-03T11:48:45.476Z,99.90
2019-05-03T11:51:46.598Z,99.90
2019-05-03T11:57:50.651Z,99.90
2019-05-03T12:00:30.936Z,99.90
2019-05-03T12:03:15.891Z,99.90
2019-05-03T12:06:01.137Z,99.90
2019-05-03T12:09:19.329Z,99.90
2019-05-03T12:18:08.672Z,99.90
2019-05-03T12:24:22.517Z,99.90
2019-05-03T12:27:15.199Z,99.90
2019-05-03T12:30:04.891Z,99.90
2019-05-03T12:39:23.206Z,99.90
2019-05-03T12:51:26.728Z,99.90
2019-05-03T12:54:08.367Z,99.90
2019-05-03T12:56:48.389Z,99.90
2019-05-03T13:09:39.137Z,99.90
2019-05-03T13:12:30.043Z,99.90
2019-05-03T13:15:14.474Z,99.90
2019-05-03T13:17:57.233Z,99.90
2019-05-03T13:21:12.460Z,99.90
2019-05-03T13:23:45.302Z,99.90
2019-05-03T13:37:16.203Z,99.90
2019-05-03T13:42:57.680Z,99.90
2019-05-03T13:51:09.263Z,99.90
2019-05-03T13:52:35.937Z,99.90
2019-05-03T13:55:16.701Z,99.90
2019-05-03T13:57:54.873Z,99.90
2019-05-03T14:04:02.514Z,99.90
2019-05-03T14:06:34.515Z,99.90
2019-05-03T14:09:34.754Z,99.90
2019-05-03T14:15:21.998Z,99.90
2019-05-03T14:18:54.864Z,99.90
2019-05-03T14:21:12.656Z,99.90
2019-05-03T14:30:46.097Z,99.90
2019-05-03T14:33:29.309Z,99.90
2019-05-03T14:45:59.698Z,99.90
2019-05-03T14:49:06.496Z,99.90
2019-05-03T14:51:56.957Z,99.90
2019-05-03T14:58:17.290Z,99.90
2019-05-03T15:04:17.552Z,99.90
2019-05-03T15:10:35.469Z,99.90
2019-05-03T15:13:49.829Z,99.90
2019-05-03T15:16:34.277Z,99.90
2019-05-03T15:19:28.515Z,99.90
2019-05-03T15:22:28.498Z,99.90
2019-05-03T15:25:16.658Z,99.90
2019-05-03T15:28:14.477Z,99.90
2019-05-03T15:34:44.603Z,99.90
2019-05-03T15:40:50.953Z,99.90
2019-05-03T15:56:05.234Z,99.90
2019-05-03T15:58:58.900Z,99.90
2019-05-03T16:01:49.962Z,99.90
2019-05-03T16:04:45.827Z,99.90
2019-05-03T16:07:25.042Z,99.90
2019-05-03T16:13:26.880Z,99.90
2019-05-03T16:22:38.469Z,99.90
2019-05-03T16:25:24.909Z,99.90
2019-05-03T16:31:26.628Z,99.90
2019-05-03T16:34:20.755Z,99.90
2019-05-03T16:37:04.438Z,99.90
2019-05-03T16:39:38.635Z,99.90
2019-05-03T16:42:16.777Z,99.90
2019-05-03T16:51:06.657Z,99.90
2019-05-03T16:57:01.351Z,99.90
2019-05-03T17:08:56.861Z,99.90
2019-05-03T17:11:34.824Z,99.90
2019-05-03T17:14:22.330Z,99.90
2019-05-03T17:17:34.474Z,99.90
2019-05-03T17:19:51.692Z,99.90
2019-05-03T17:22:31.089Z,99.90
2019-05-03T17:25:06.528Z,99.90
2019-05-03T17:27:44.912Z,99.90
2019-05-03T17:30:34.071Z,99.90
2019-05-03T17:33:11.299Z,99.90
2019-05-03T17:35:58.446Z,99.90
2019-05-03T17:38:28.213Z,99.90
2019-05-03T17:44:14.423Z,99.90
2019-05-03T17:47:11.753Z,99.90
2019-05-03T17:49:37.425Z,99.90
2019-05-03T17:55:27.675Z,99.90
2019-05-03T17:58:34.952Z,99.90
2019-05-03T18:01:13.695Z,99.90
2019-05-03T18:07:16.601Z,99.90
2019-05-03T18:09:55.361Z,99.90
2019-05-03T18:12:39.074Z,99.90
2019-05-03T18:15:25.119Z,99.90
2019-05-03T18:18:00.365Z,99.90
2019-05-03T18:20:36.356Z,99.90
2019-05-03T18:23:19.979Z,99.90
2019-05-03T18:26:38.392Z,99.90
2019-05-03T18:31:46.577Z,99.90
2019-05-03T18:34:27.217Z,99.90
2019-05-03T18:37:04.911Z,99.90
2019-05-03T18:39:41.998Z,99.90
2019-05-03T18:42:25.607Z,99.90
2019-05-03T18:45:04.606Z,99.90
2019-05-03T18:47:38.134Z,99.90
2019-05-03T18:50:32.042Z,99.90
2019-05-03T18:53:10.561Z,99.90
2019-05-03T18:56:04.522Z,99.90
2019-05-03T19:02:07.914Z,99.90
2019-05-03T19:08:26.775Z,99.90
2019-05-03T19:11:16.591Z,99.90
2019-05-03T19:14:27.057Z,99.90
2019-05-03T19:17:59.942Z,99.90
2019-05-03T19:20:35.115Z,99.90
2019-05-03T19:23:09.473Z,99.90
2019-05-03T19:25:58.838Z,99.90
2019-05-03T19:28:40.814Z,99.90
2019-05-03T19:31:36.018Z,99.90
2019-05-03T19:34:19.548Z,99.90
2019-05-03T19:36:57.074Z,99.90
2019-05-03T19:39:34.590Z,99.90
2019-05-03T19:42:21.984Z,99.90
2019-05-03T19:44:59.525Z,99.90
2019-05-03T19:47:36.662Z,99.90
2019-05-03T19:50:11.896Z,99.90
2019-05-03T19:55:55.205Z,99.90
2019-05-03T19:58:35.498Z,99.90
2019-05-03T20:01:22.229Z,99.90
2019-05-03T20:04:02.790Z,99.90
2019-05-03T20:06:41.643Z,99.90
2019-05-03T20:09:19.120Z,99.90
2019-05-03T20:11:55.661Z,99.90
2019-05-03T20:14:36.076Z,99.90
2019-05-03T20:17:11.193Z,99.90
2019-05-03T20:19:47.305Z,99.90
2019-05-03T20:22:22.246Z,99.90
2019-05-03T20:24:56.144Z,99.90
2019-05-03T20:27:32.514Z,99.90
2019-05-03T20:30:12.502Z,99.90
2019-05-03T20:32:51.396Z,99.90
2019-05-03T20:35:25.693Z,99.90
2019-05-03T20:37:59.410Z,99.90
2019-05-03T20:40:35.071Z,99.90
2019-05-03T20:43:23.420Z,99.90
2019-05-03T20:46:25.495Z,99.90
2019-05-03T20:49:12.563Z,99.90
2019-05-03T20:51:51.263Z,99.90
2019-05-03T20:54:28.781Z,99.90
2019-05-03T20:57:05.241Z,99.90
2019-05-03T20:59:48.216Z,99.90
2019-05-03T21:02:18.697Z,99.90
2019-05-03T21:04:52.371Z,99.90
2019-05-03T21:07:55.009Z,99.90
2019-05-03T21:13:39.081Z,99.90
2019-05-03T21:16:05.720Z,99.90
2019-05-03T21:21:44.815Z,99.90
2019-05-03T21:27:39.639Z,99.90
2019-05-03T21:30:49.533Z,99.90
2019-05-03T21:33:32.539Z,99.90
2019-05-03T21:36:22.960Z,99.90
2019-05-03T21:39:05.392Z,99.90
2019-05-03T21:41:55.533Z,99.90
2019-05-03T21:44:35.355Z,99.90
2019-05-03T21:50:44.613Z,99.90
2019-05-03T21:56:11.034Z,99.90
2019-05-03T21:58:51.725Z,99.90
2019-05-03T22:01:45.620Z,99.90
2019-05-03T22:07:25.027Z,99.90
2019-05-03T22:10:06.910Z,99.90
2019-05-03T22:12:57.048Z,99.90
2019-05-03T22:15:34.998Z,99.90
2019-05-03T22:18:21.964Z,99.90
2019-05-03T22:21:05.427Z,99.90
2019-05-03T22:23:58.438Z,99.90
2019-05-03T22:26:57.132Z,99.90
2019-05-03T22:29:29.295Z,99.90
2019-05-03T22:32:06.614Z,99.90
2019-05-03T22:34:41.215Z,99.90
2019-05-03T22:37:16.637Z,99.90
2019-05-03T22:40:05.329Z,99.90
2019-05-03T22:42:42.156Z,99.90
2019-05-03T22:45:16.882Z,99.90
2019-05-03T22:47:59.439Z,99.90
2019-05-03T22:50:44.865Z,99.90
2019-05-03T22:53:20.712Z,99.90
2019-05-03T22:55:55.955Z,99.90
2019-05-03T22:58:35.343Z,99.90
2019-05-03T23:01:16.631Z,99.90
2019-05-03T23:03:58.992Z,99.90
2019-05-03T23:06:44.464Z,99.90
2019-05-03T23:09:38.353Z,99.90
2019-05-03T23:15:11.546Z,99.90
2019-05-03T23:18:04.925Z,99.90
2019-05-03T23:20:35.196Z,99.90
2019-05-03T23:23:18.509Z,99.90
2019-05-03T23:35:27.887Z,99.90
2019-05-03T23:44:41.815Z,99.90
2019-05-03T23:50:31.026Z,99.90
2019-05-03T23:53:29.941Z,99.90
2019-05-03T23:58:55.028Z,99.90
